Time;durP1;ratioP1;P1;durP2;ratioP2;P2;SDS_P1;SDS_P2;PMS_P1;PMS_P2;Temp;Humidity;BMP_temperature;BMP_pressure;BME280_temperature;BME280_humidity;BME280_pressure;Samples;Min_cycle;Max_cycle;Signal;HPM_P1;HPM_P2
2023/09/26 00:04:49;;;;;;;15.70;9.00;;;23.80;66.20;;;;;;217446;1298;22577;-65
2023/09/26 00:09:52;;;;;;;10.50;9.60;;;23.80;66.10;;;;;;217333;1294;23385;-63
2023/09/26 00:14:56;;;;;;;9.50;8.60;;;23.80;66.30;;;;;;217459;1291;22618;-64
2023/09/26 00:19:59;;;;;;;10.10;9.10;;;23.80;66.20;;;;;;217320;1297;22574;-65
2023/09/26 00:25:03;;;;;;;12.30;9.90;;;23.80;66.50;;;;;;217127;1294;24404;-65
2023/09/26 00:30:08;;;;;;;9.90;8.80;;;23.70;66.20;;;;;;217298;1288;22565;-64
2023/09/26 00:35:12;;;;;;;10.40;9.40;;;23.70;66.10;;;;;;217374;1291;22569;-64
2023/09/26 00:40:18;;;;;;;11.70;9.70;;;23.70;66.10;;;;;;217434;1292;24286;-66
2023/09/26 00:45:21;;;;;;;10.10;8.70;;;23.70;66.70;;;;;;217586;1291;22581;-65
2023/09/26 00:50:24;;;;;;;10.00;9.00;;;23.70;65.50;;;;;;217292;1294;22693;-64
2023/09/26 00:55:28;;;;;;;11.40;8.80;;;23.70;66.10;;;;;;217024;1291;22545;-65
2023/09/26 01:00:30;;;;;;;9.80;8.80;;;23.70;66.20;;;;;;217225;1288;22555;-64
2023/09/26 01:05:36;;;;;;;9.80;8.20;;;23.70;66.50;;;;;;217216;1294;22558;-64
2023/09/26 01:10:39;;;;;;;9.50;8.60;;;23.70;66.50;;;;;;217475;1291;22550;-64
2023/09/26 01:15:43;;;;;;;10.10;8.20;;;23.60;66.10;;;;;;217554;1288;22680;-65
2023/09/26 01:20:46;;;;;;;11.20;8.60;;;23.60;66.50;;;;;;217282;1292;24100;-65
2023/09/26 01:25:49;;;;;;;10.00;8.60;;;23.60;66.10;;;;;;217320;1294;22799;-64
2023/09/26 01:30:51;;;;;;;8.90;7.60;;;23.60;66.20;;;;;;217049;1287;22557;-64
2023/09/26 01:35:54;;;;;;;8.60;7.70;;;23.60;66.00;;;;;;217407;1291;22556;-64
2023/09/26 01:40:59;;;;;;;8.10;7.40;;;23.60;66.10;;;;;;217195;1296;26704;-64
2023/09/26 01:46:02;;;;;;;8.60;7.20;;;23.60;66.00;;;;;;217612;1292;22543;-64
2023/09/26 01:51:05;;;;;;;8.60;7.80;;;23.60;65.70;;;;;;217139;1294;22837;-64
2023/09/26 01:56:08;;;;;;;11.70;8.20;;;23.60;65.80;;;;;;217174;1297;22576;-65
2023/09/26 02:01:11;;;;;;;8.10;7.40;;;23.60;65.90;;;;;;217316;1294;23964;-65
2023/09/26 02:06:14;;;;;;;8.20;7.40;;;23.60;65.80;;;;;;217364;1291;24299;-63
2023/09/26 02:11:17;;;;;;;8.00;7.40;;;23.60;65.90;;;;;;217288;1291;22555;-67
2023/09/26 02:16:20;;;;;;;8.60;7.70;;;23.60;65.80;;;;;;217665;1294;22695;-64
2023/09/26 02:21:22;;;;;;;7.40;6.80;;;23.60;65.90;;;;;;217291;1285;22548;-64
2023/09/26 02:26:25;;;;;;;7.40;6.70;;;23.60;65.90;;;;;;217337;1298;25187;-64
2023/09/26 02:31:28;;;;;;;7.80;7.10;;;23.50;65.80;;;;;;217235;1291;22717;-64
2023/09/26 02:36:32;;;;;;;9.40;7.00;;;23.50;65.80;;;;;;217502;1295;23972;-64
2023/09/26 02:41:35;;;;;;;7.50;6.80;;;23.50;65.80;;;;;;217362;1292;22550;-64
2023/09/26 02:46:38;;;;;;;8.30;6.80;;;23.50;65.90;;;;;;217121;1276;22569;-64
2023/09/26 02:51:41;;;;;;;7.70;7.00;;;23.50;65.90;;;;;;217365;1297;22549;-66
2023/09/26 02:56:43;;;;;;;8.00;7.30;;;23.50;65.70;;;;;;217137;1292;24296;-66
2023/09/26 03:01:46;;;;;;;7.50;6.80;;;23.50;65.80;;;;;;217333;1297;22823;-65
2023/09/26 03:06:49;;;;;;;7.20;6.50;;;23.50;65.80;;;;;;216832;1290;369708;-65
2023/09/26 03:11:52;;;;;;;9.00;6.60;;;23.50;65.70;;;;;;217360;1291;22663;-65
2023/09/26 03:16:55;;;;;;;7.20;6.50;;;23.50;65.80;;;;;;217407;1291;22601;-64
2023/09/26 03:21:58;;;;;;;7.10;6.40;;;23.50;65.80;;;;;;217348;1292;23942;-65
2023/09/26 03:27:00;;;;;;;7.60;6.80;;;23.50;65.80;;;;;;217052;1291;22755;-65
2023/09/26 03:32:03;;;;;;;7.60;6.60;;;23.40;66.10;;;;;;217209;1295;24260;-66
2023/09/26 03:37:07;;;;;;;7.10;6.40;;;23.40;65.80;;;;;;217485;1297;23191;-64
2023/09/26 03:42:10;;;;;;;6.60;6.10;;;23.40;65.70;;;;;;217251;1298;22642;-64
2023/09/26 03:47:13;;;;;;;6.40;5.80;;;23.50;65.80;;;;;;217320;1292;22679;-65
2023/09/26 03:52:15;;;;;;;6.90;6.20;;;23.40;65.70;;;;;;217472;1297;24372;-64
2023/09/26 03:57:18;;;;;;;6.50;6.00;;;23.40;65.70;;;;;;217308;1285;22735;-63
2023/09/26 04:02:21;;;;;;;7.00;6.10;;;23.40;65.80;;;;;;217514;1295;22962;-65
2023/09/26 04:07:28;;;;;;;7.10;6.20;;;23.40;65.70;;;;;;217442;1298;22720;-64
2023/09/26 04:12:31;;;;;;;6.90;6.20;;;23.40;65.80;;;;;;217210;1298;22703;-64
2023/09/26 04:17:33;;;;;;;5.60;5.10;;;23.40;65.70;;;;;;217174;1297;22789;-64
2023/09/26 04:22:37;;;;;;;6.90;6.20;;;23.40;65.60;;;;;;217406;1291;23921;-65
2023/09/26 04:27:40;;;;;;;6.50;6.00;;;23.40;65.70;;;;;;217272;1297;22641;-65
2023/09/26 04:32:43;;;;;;;5.50;5.10;;;23.40;65.40;;;;;;217256;1296;22553;-64
2023/09/26 04:37:46;;;;;;;6.60;6.10;;;23.40;66.00;;;;;;217472;1295;22649;-65
2023/09/26 04:42:48;;;;;;;6.90;6.20;;;23.40;66.30;;;;;;217079;1276;24248;-63
2023/09/26 04:47:53;;;;;;;6.50;6.00;;;23.30;65.60;;;;;;217204;1297;22676;-65
2023/09/26 04:52:58;;;;;;;6.60;6.00;;;23.30;65.70;;;;;;216938;1297;23965;-64
2023/09/26 04:58:01;;;;;;;6.10;5.50;;;23.30;65.80;;;;;;217294;1298;25313;-64
2023/09/26 05:03:04;;;;;;;6.50;5.90;;;23.30;65.70;;;;;;217007;1298;23943;-64
2023/09/26 05:08:07;;;;;;;6.30;5.70;;;23.30;65.70;;;;;;217345;1291;22553;-66
2023/09/26 05:13:10;;;;;;;8.80;6.90;;;23.30;65.70;;;;;;217228;1291;23629;-63
2023/09/26 05:18:13;;;;;;;6.00;5.40;;;23.30;65.70;;;;;;217258;1285;22564;-65
2023/09/26 05:23:16;;;;;;;5.90;5.40;;;23.30;65.70;;;;;;216990;1298;22550;-65
2023/09/26 05:28:18;;;;;;;6.00;5.50;;;23.30;66.20;;;;;;217290;1291;22552;-65
2023/09/26 05:33:21;;;;;;;9.90;5.80;;;23.30;65.90;;;;;;217201;1295;22565;-57
2023/09/26 05:38:25;;;;;;;7.40;5.40;;;23.20;66.00;;;;;;217395;1276;22556;-58
2023/09/26 05:43:28;;;;;;;6.50;5.40;;;23.30;65.70;;;;;;217083;1294;22985;-59
2023/09/26 05:48:32;;;;;;;6.20;5.00;;;23.30;66.00;;;;;;217342;1291;22556;-62
2023/09/26 05:53:34;;;;;;;6.30;4.90;;;23.30;66.60;;;;;;217376;1288;23924;-58
2023/09/26 05:58:37;;;;;;;6.30;5.70;;;23.30;66.10;;;;;;217236;1285;23898;-60
2023/09/26 06:03:40;;;;;;;9.90;5.30;;;23.30;66.00;;;;;;217228;1297;22605;-59
2023/09/26 06:08:44;;;;;;;6.10;5.50;;;23.40;66.20;;;;;;217028;1282;22567;-57
2023/09/26 06:13:47;;;;;;;6.00;5.50;;;23.50;66.60;;;;;;217087;1289;25278;-56
2023/09/26 06:18:50;;;;;;;9.30;5.70;;;23.50;66.90;;;;;;216951;1292;22567;-57
2023/09/26 06:23:53;;;;;;;7.90;5.00;;;23.40;67.10;;;;;;217055;1295;22559;-58
2023/09/26 06:28:55;;;;;;;7.30;5.60;;;23.50;66.60;;;;;;216835;1298;22608;-58
2023/09/26 06:34:00;;;;;;;6.40;5.80;;;23.50;66.50;;;;;;217091;1297;25401;-58
2023/09/26 06:39:03;;;;;;;8.60;5.60;;;23.60;66.30;;;;;;217074;1294;22564;-58
2023/09/26 06:44:06;;;;;;;7.50;5.60;;;23.50;66.70;;;;;;217328;1286;24246;-57
2023/09/26 06:49:10;;;;;;;7.30;5.50;;;23.40;66.80;;;;;;216827;1276;22569;-58
2023/09/26 06:54:13;;;;;;;6.00;5.10;;;23.40;67.00;;;;;;217371;1276;22550;-57
2023/09/26 06:59:16;;;;;;;5.40;4.90;;;23.30;67.30;;;;;;217181;1291;23375;-56
2023/09/26 07:04:19;;;;;;;5.80;5.20;;;23.40;67.40;;;;;;217249;1298;22560;-58
2023/09/26 07:09:23;;;;;;;4.80;4.50;;;23.50;67.50;;;;;;217239;1291;22956;-59
2023/09/26 07:14:31;;;;;;;6.10;5.50;;;23.40;67.40;;;;;;217376;1291;24108;-58
2023/09/26 07:19:33;;;;;;;8.30;5.40;;;23.50;67.50;;;;;;217350;1298;22563;-59
2023/09/26 07:24:36;;;;;;;6.30;5.80;;;23.50;67.90;;;;;;217308;1294;22814;-57
2023/09/26 07:29:52;;;;;;;10.60;6.20;;;23.50;67.50;;;;;;217220;1292;23294;-58
2023/09/26 07:34:55;;;;;;;10.00;4.90;;;23.60;67.30;;;;;;217197;1298;24709;-59
2023/09/26 07:39:57;;;;;;;7.80;5.30;;;23.60;67.30;;;;;;216960;1298;22797;-58
2023/09/26 07:45:02;;;;;;;6.30;5.10;;;23.70;66.90;;;;;;217437;1295;24041;-56
2023/09/26 07:50:06;;;;;;;8.60;5.70;;;23.70;67.00;;;;;;217690;1293;24413;-57
2023/09/26 07:55:12;;;;;;;9.70;5.90;;;23.60;67.40;;;;;;220055;1294;22567;-51
2023/09/26 08:00:15;;;;;;;15.90;9.90;;;23.80;66.90;;;;;;217749;1292;25381;-52
2023/09/26 08:05:19;;;;;;;14.30;12.30;;;23.40;67.20;;;;;;217202;1292;25443;-50
2023/09/26 08:10:22;;;;;;;15.90;11.90;;;23.10;68.10;;;;;;218629;1295;22570;-54
2023/09/26 08:15:25;;;;;;;16.50;13.30;;;23.10;68.30;;;;;;217060;1291;22697;-52
2023/09/26 08:20:28;;;;;;;21.00;13.70;;;23.00;68.70;;;;;;217220;1292;22589;-48
2023/09/26 08:25:32;;;;;;;24.40;14.20;;;23.00;69.00;;;;;;217130;1298;23619;-51
2023/09/26 08:30:36;;;;;;;23.70;14.90;;;22.90;69.30;;;;;;216995;1292;22563;-49
2023/09/26 08:35:39;;;;;;;19.30;14.60;;;22.90;69.70;;;;;;216923;1291;22693;-53
2023/09/26 08:40:43;;;;;;;17.30;15.10;;;22.80;69.90;;;;;;217163;1298;22633;-54
2023/09/26 08:45:46;;;;;;;16.80;15.00;;;22.90;69.60;;;;;;216968;1298;22563;-55
2023/09/26 08:50:49;;;;;;;14.60;13.10;;;22.80;69.50;;;;;;217153;1295;24330;-52
2023/09/26 08:55:52;;;;;;;17.10;15.50;;;23.00;69.30;;;;;;217198;1297;22547;-54
2023/09/26 09:00:55;;;;;;;16.80;15.20;;;23.10;68.00;;;;;;217034;1298;22555;-53
2023/09/26 09:05:58;;;;;;;16.30;14.70;;;23.00;67.90;;;;;;217256;1298;22557;-53
2023/09/26 09:11:01;;;;;;;15.80;13.90;;;23.00;68.60;;;;;;217208;1292;24327;-51
2023/09/26 09:16:20;;;;;;;14.10;12.50;;;23.20;68.30;;;;;;217203;1298;22639;-53
2023/09/26 09:21:27;;;;;;;14.40;13.00;;;23.30;67.90;;;;;;217304;1292;22611;-53
2023/09/26 09:26:34;;;;;;;14.60;13.30;;;23.30;67.60;;;;;;217459;1298;22667;-50
2023/09/26 09:31:37;;;;;;;16.60;13.30;;;23.30;67.60;;;;;;217251;1298;22819;-53
2023/09/26 09:36:44;;;;;;;13.00;11.80;;;23.30;68.00;;;;;;217103;1298;23806;-52
2023/09/26 09:41:47;;;;;;;12.60;11.30;;;23.40;67.70;;;;;;217139;1292;22566;-53
2023/09/26 09:46:55;;;;;;;13.60;12.40;;;23.40;68.00;;;;;;217221;1289;23894;-53
2023/09/26 09:52:05;;;;;;;15.10;13.30;;;23.40;67.70;;;;;;217041;1292;23970;-51
2023/09/26 09:57:11;;;;;;;13.30;11.70;;;23.40;67.70;;;;;;217256;1292;22643;-49
2023/09/26 10:02:17;;;;;;;13.00;11.70;;;23.40;67.60;;;;;;217383;1296;22698;-52
2023/09/26 10:07:20;;;;;;;13.10;11.90;;;23.40;67.60;;;;;;217364;1295;23984;-60
2023/09/26 10:12:25;;;;;;;13.50;12.20;;;23.40;67.60;;;;;;217540;1295;22577;-56
2023/09/26 10:17:32;;;;;;;14.50;13.00;;;23.40;67.50;;;;;;217111;1295;22586;-58
2023/09/26 10:22:35;;;;;;;14.60;13.20;;;23.40;67.60;;;;;;217424;1292;22559;-58
2023/09/26 10:27:43;;;;;;;14.10;12.90;;;23.40;67.50;;;;;;217641;1298;22625;-59
2023/09/26 10:33:06;;;;;;;14.30;13.00;;;23.40;67.90;;;;;;216927;1298;22677;-58
2023/09/26 10:38:23;;;;;;;14.40;12.90;;;23.50;67.60;;;;;;217482;1286;22581;-58
2023/09/26 10:43:27;;;;;;;15.40;13.80;;;23.60;67.70;;;;;;217423;1286;22625;-57
2023/09/26 10:48:48;;;;;;;15.90;13.70;;;23.60;67.60;;;;;;217355;1297;22557;-57
2023/09/26 10:53:51;;;;;;;16.00;14.30;;;23.60;67.30;;;;;;217553;1295;25223;-58
2023/09/26 10:58:55;;;;;;;15.80;14.30;;;23.60;67.50;;;;;;217133;1298;22567;-59
2023/09/26 11:03:58;;;;;;;14.30;12.80;;;23.70;67.40;;;;;;217367;1298;22565;-58
2023/09/26 11:09:03;;;;;;;15.30;14.00;;;23.60;68.00;;;;;;217228;1298;22549;-59
2023/09/26 11:14:06;;;;;;;14.80;13.30;;;23.60;67.60;;;;;;216933;1298;22601;-57
2023/09/26 11:19:09;;;;;;;15.20;13.80;;;23.60;67.90;;;;;;217372;1298;24094;-59
2023/09/26 11:24:31;;;;;;;15.90;14.40;;;23.70;67.40;;;;;;217423;1298;22718;-55
2023/09/26 11:29:34;;;;;;;16.20;14.60;;;23.70;67.20;;;;;;217468;1295;22583;-53
2023/09/26 11:34:38;;;;;;;16.00;14.50;;;23.80;67.40;;;;;;217523;1298;22700;-53
2023/09/26 11:39:50;;;;;;;16.60;15.10;;;23.70;67.10;;;;;;217494;1298;22600;-55
2023/09/26 11:44:56;;;;;;;14.80;13.50;;;23.80;67.60;;;;;;217287;1277;22529;-50
2023/09/26 11:49:59;;;;;;;16.00;14.40;;;23.90;66.80;;;;;;217293;1292;22566;-55
2023/09/26 11:55:03;;;;;;;19.00;15.70;;;24.00;66.20;;;;;;217439;1295;25322;-53
2023/09/26 12:00:11;;;;;;;14.80;13.40;;;24.10;66.10;;;;;;217456;1291;24256;-55
2023/09/26 12:05:15;;;;;;;16.00;14.50;;;24.10;65.90;;;;;;217271;1298;22681;-51
2023/09/26 12:10:19;;;;;;;16.10;14.50;;;24.20;65.70;;;;;;217057;1286;22595;-52
2023/09/26 12:15:25;;;;;;;15.80;14.40;;;24.20;65.60;;;;;;216831;1298;24266;-51
2023/09/26 12:20:29;;;;;;;16.10;14.60;;;24.30;65.40;;;;;;219864;1295;22590;-51
2023/09/26 12:25:31;;;;;;;15.00;13.60;;;24.40;65.50;;;;;;222361;1289;22817;-51
2023/09/26 12:30:35;;;;;;;16.30;13.90;;;24.60;64.70;;;;;;218481;1295;22659;-51
2023/09/26 12:35:38;;;;;;;15.20;13.80;;;24.70;64.40;;;;;;217487;1292;22702;-55
2023/09/26 12:40:41;;;;;;;14.60;13.30;;;24.60;64.70;;;;;;217006;1292;22671;-53
2023/09/26 12:45:44;;;;;;;14.80;13.40;;;24.60;64.90;;;;;;217319;1297;22673;-53
2023/09/26 12:50:46;;;;;;;13.90;12.50;;;24.50;65.00;;;;;;217137;1292;22797;-53
2023/09/26 12:55:51;;;;;;;15.10;13.60;;;24.50;65.00;;;;;;217271;1292;22775;-52
2023/09/26 13:00:54;;;;;;;14.10;12.70;;;24.50;65.30;;;;;;217380;1294;22575;-52
2023/09/26 13:05:57;;;;;;;16.00;13.80;;;24.50;65.40;;;;;;217105;1298;22794;-52
2023/09/26 13:10:59;;;;;;;15.60;14.10;;;24.50;65.20;;;;;;217232;1296;22566;-53
2023/09/26 13:16:04;;;;;;;14.90;13.40;;;24.50;65.60;;;;;;217266;1292;22627;-52
2023/09/26 13:21:07;;;;;;;16.40;14.70;;;24.60;65.40;;;;;;217233;1297;22553;-53
2023/09/26 13:26:10;;;;;;;13.80;12.60;;;24.60;65.70;;;;;;217269;1292;22556;-52
2023/09/26 13:31:13;;;;;;;14.10;12.70;;;24.60;65.60;;;;;;217069;1296;25618;-50
2023/09/26 13:36:16;;;;;;;13.80;12.30;;;24.70;65.50;;;;;;217020;1291;25389;-51
2023/09/26 13:41:19;;;;;;;13.90;12.60;;;24.80;65.30;;;;;;217126;1285;22667;-52
2023/09/26 13:46:22;;;;;;;13.90;12.70;;;24.80;65.30;;;;;;217293;1294;22617;-52
2023/09/26 13:51:25;;;;;;;13.50;12.10;;;24.90;65.40;;;;;;217398;1294;22562;-53
2023/09/26 13:56:28;;;;;;;13.80;12.50;;;24.90;65.80;;;;;;217274;1285;22552;-50
2023/09/26 14:01:31;;;;;;;13.20;11.80;;;24.90;65.30;;;;;;217195;1295;22556;-52
2023/09/26 14:06:34;;;;;;;12.10;10.90;;;25.10;65.00;;;;;;217370;1295;22552;-50
2023/09/26 14:11:37;;;;;;;12.90;11.50;;;24.90;65.10;;;;;;216990;1298;22677;-51
2023/09/26 14:16:40;;;;;;;12.90;11.60;;;24.90;65.00;;;;;;217221;1297;22569;-53
2023/09/26 14:21:43;;;;;;;12.00;10.60;;;24.90;65.20;;;;;;217522;1293;24112;-50
2023/09/26 14:26:46;;;;;;;13.70;11.70;;;24.90;65.20;;;;;;216892;1295;23820;-52
2023/09/26 14:31:49;;;;;;;12.40;11.10;;;24.80;65.20;;;;;;217294;1291;22618;-52
2023/09/26 14:36:52;;;;;;;12.70;10.80;;;24.80;65.40;;;;;;217332;1292;22582;-53
2023/09/26 14:41:56;;;;;;;12.50;11.30;;;24.60;65.80;;;;;;217053;1295;23963;-50
2023/09/26 14:46:59;;;;;;;13.90;12.50;;;24.60;65.90;;;;;;217451;1292;22550;-53
2023/09/26 14:52:02;;;;;;;13.90;10.70;;;24.60;65.90;;;;;;217044;1291;22645;-54
2023/09/26 14:57:05;;;;;;;14.50;11.30;;;24.70;65.90;;;;;;217056;1276;24889;-55
2023/09/26 15:02:08;;;;;;;11.20;10.20;;;24.50;66.00;;;;;;217134;1297;23021;-53
2023/09/26 15:07:11;;;;;;;13.10;10.90;;;24.60;65.80;;;;;;217020;1291;184023;-52
2023/09/26 15:12:15;;;;;;;15.00;11.80;;;24.70;68.40;;;;;;217202;1294;22562;-57
2023/09/26 15:17:18;;;;;;;14.80;12.00;;;24.60;67.80;;;;;;217074;1291;22635;-55
2023/09/26 15:22:21;;;;;;;12.60;11.30;;;24.50;68.40;;;;;;217198;1285;22557;-59
2023/09/26 15:27:24;;;;;;;13.00;11.20;;;24.50;68.00;;;;;;217199;1292;22548;-58
2023/09/26 15:32:27;;;;;;;14.40;11.60;;;24.50;68.20;;;;;;217270;1291;24279;-57
2023/09/26 15:37:31;;;;;;;14.50;11.10;;;24.50;67.80;;;;;;217079;1290;22546;-57
2023/09/26 15:42:33;;;;;;;13.60;12.20;;;24.50;67.60;;;;;;217253;1295;25355;-58
2023/09/26 15:47:37;;;;;;;15.00;11.80;;;24.50;68.00;;;;;;217168;1295;24392;-55
2023/09/26 15:52:40;;;;;;;13.10;11.80;;;24.50;67.80;;;;;;217200;1295;25370;-57
2023/09/26 15:57:43;;;;;;;18.00;12.60;;;24.50;67.80;;;;;;222059;1294;22577;-58
2023/09/26 16:02:46;;;;;;;15.10;12.30;;;24.50;68.00;;;;;;216829;1297;24407;-56
2023/09/26 16:07:48;;;;;;;14.40;12.40;;;24.50;67.70;;;;;;217313;1291;24782;-59
2023/09/26 16:12:52;;;;;;;11.00;9.80;;;24.50;67.80;;;;;;216983;1291;22681;-56
2023/09/26 16:18:12;;;;;;;13.70;12.30;;;24.40;68.10;;;;;;217418;1294;22683;-55
2023/09/26 16:23:15;;;;;;;15.60;12.30;;;24.40;68.30;;;;;;217207;1291;23053;-46
2023/09/26 16:28:18;;;;;;;18.40;13.40;;;24.50;68.00;;;;;;216989;1286;24260;-47
2023/09/26 16:33:20;;;;;;;18.70;13.20;;;24.60;67.80;;;;;;217709;1292;22690;-50
2023/09/26 16:38:23;;;;;;;17.20;13.70;;;24.70;67.50;;;;;;217260;1291;22698;-52
2023/09/26 16:43:28;;;;;;;15.50;13.40;;;24.60;67.90;;;;;;217253;1284;22564;-51
2023/09/26 16:48:30;;;;;;;18.10;14.10;;;24.40;68.40;;;;;;217634;1291;22851;-50
2023/09/26 16:53:33;;;;;;;18.20;13.40;;;24.40;68.40;;;;;;217163;1297;22549;-49
2023/09/26 16:58:36;;;;;;;16.90;13.30;;;24.50;68.30;;;;;;217283;1291;24294;-51
2023/09/26 17:03:44;;;;;;;17.70;13.90;;;24.50;68.20;;;;;;217374;1295;24292;-49
2023/09/26 17:08:48;;;;;;;17.40;12.90;;;24.30;68.20;;;;;;217187;1275;23968;-55
2023/09/26 17:13:51;;;;;;;14.70;13.10;;;24.30;68.70;;;;;;217270;1298;24325;-53
2023/09/26 17:18:55;;;;;;;17.40;14.30;;;24.20;68.60;;;;;;217091;1294;24311;-48
2023/09/26 17:23:58;;;;;;;15.80;13.40;;;24.30;68.40;;;;;;216974;1291;22556;-50
2023/09/26 17:29:01;;;;;;;16.50;13.50;;;24.30;68.70;;;;;;216873;1295;24258;-51
2023/09/26 17:34:05;;;;;;;16.30;13.90;;;24.30;68.20;;;;;;216930;1292;22556;-52
2023/09/26 17:39:11;;;;;;;13.80;12.30;;;24.50;68.10;;;;;;217197;1282;24307;-55
2023/09/26 17:44:17;;;;;;;17.50;14.00;;;24.50;67.60;;;;;;217676;1294;22557;-56
2023/09/26 17:49:20;;;;;;;15.50;13.80;;;24.30;68.30;;;;;;217271;1298;24272;-53
2023/09/26 17:54:24;;;;;;;17.90;13.60;;;24.30;68.30;;;;;;217639;1282;24366;-55
2023/09/26 17:59:28;;;;;;;20.80;15.70;;;24.20;68.50;;;;;;217210;1294;24098;-53
2023/09/26 18:04:34;;;;;;;17.40;15.00;;;24.40;69.70;;;;;;219192;1291;22575;-56
2023/09/26 18:09:38;;;;;;;20.30;14.90;;;24.50;70.60;;;;;;217181;1292;24324;-54
2023/09/26 18:14:43;;;;;;;20.70;15.70;;;24.50;69.60;;;;;;217660;1292;25227;-55
2023/09/26 18:19:48;;;;;;;20.10;15.80;;;24.50;70.00;;;;;;217343;1291;24280;-50
2023/09/26 18:24:53;;;;;;;17.00;15.20;;;24.40;69.00;;;;;;217308;1295;24312;-51
2023/09/26 18:29:58;;;;;;;19.10;17.00;;;24.10;68.60;;;;;;217376;1293;22633;-50
2023/09/26 18:35:04;;;;;;;20.10;16.20;;;24.00;69.40;;;;;;217169;1297;24365;-50
2023/09/26 18:40:11;;;;;;;20.30;15.30;;;23.90;68.80;;;;;;217360;1292;22680;-51
2023/09/26 18:45:16;;;;;;;20.00;18.00;;;23.80;69.10;;;;;;217462;1286;23422;-50
2023/09/26 18:50:20;;;;;;;18.20;16.40;;;23.70;69.50;;;;;;217351;1292;22788;-48
2023/09/26 18:55:25;;;;;;;22.80;16.50;;;23.80;69.50;;;;;;217133;1298;22569;-48
2023/09/26 19:00:29;;;;;;;21.30;13.50;;;24.10;69.40;;;;;;217341;1291;25571;-48
2023/09/26 19:05:36;;;;;;;22.00;15.30;;;24.30;68.60;;;;;;217184;1285;23994;-49
2023/09/26 19:10:41;;;;;;;21.10;17.70;;;24.40;68.20;;;;;;217702;1296;24199;-50
2023/09/26 19:15:47;;;;;;;22.50;16.50;;;24.40;68.90;;;;;;217221;1291;25578;-46
2023/09/26 19:20:55;;;;;;;28.00;17.80;;;24.50;69.00;;;;;;217803;1294;22553;-55
2023/09/26 19:26:03;;;;;;;36.40;16.30;;;24.50;69.80;;;;;;217288;1291;24076;-58
2023/09/26 19:31:13;;;;;;;28.60;17.30;;;24.50;69.20;;;;;;217023;1291;22546;-58
2023/09/26 19:36:18;;;;;;;25.50;16.00;;;24.50;69.60;;;;;;216863;1285;22550;-51
2023/09/26 19:41:23;;;;;;;19.90;15.40;;;24.50;70.50;;;;;;217114;1294;25460;-50
2023/09/26 19:46:28;;;;;;;19.60;16.10;;;24.40;70.10;;;;;;217043;1293;23379;-49
2023/09/26 19:51:32;;;;;;;20.80;15.80;;;24.40;69.80;;;;;;217349;1291;22595;-47
2023/09/26 19:56:35;;;;;;;23.30;15.50;;;24.50;69.50;;;;;;217445;1292;22552;-49
2023/09/26 20:01:40;;;;;;;20.00;15.10;;;24.40;70.20;;;;;;217493;1285;22849;-57
2023/09/26 20:06:45;;;;;;;16.30;14.60;;;24.50;69.80;;;;;;217237;1291;22559;-52
2023/09/26 20:11:49;;;;;;;19.30;14.90;;;24.50;69.30;;;;;;217914;1298;24251;-51
2023/09/26 20:16:52;;;;;;;19.60;15.40;;;24.40;69.40;;;;;;217403;1292;22691;-50
2023/09/26 20:21:55;;;;;;;17.60;14.40;;;24.40;70.20;;;;;;217197;1292;22719;-52
2023/09/26 20:27:00;;;;;;;16.10;13.90;;;24.40;69.40;;;;;;217175;1285;23973;-51
2023/09/26 20:32:03;;;;;;;17.40;14.80;;;24.40;69.30;;;;;;217605;1294;24291;-52
2023/09/26 20:37:06;;;;;;;18.60;13.60;;;24.40;69.20;;;;;;217212;1291;25058;-57
2023/09/26 20:42:09;;;;;;;16.60;14.10;;;24.40;69.00;;;;;;217128;1298;22693;-57
2023/09/26 20:47:12;;;;;;;19.00;15.30;;;24.40;68.80;;;;;;217271;1292;22550;-57
2023/09/26 20:52:15;;;;;;;16.60;13.90;;;24.50;70.30;;;;;;216994;1291;22546;-57
2023/09/26 20:57:18;;;;;;;18.70;13.80;;;24.50;69.60;;;;;;217098;1284;22558;-57
2023/09/26 21:02:20;;;;;;;17.90;14.00;;;24.50;69.30;;;;;;216957;1288;23965;-57
2023/09/26 21:07:23;;;;;;;18.30;13.70;;;24.40;69.00;;;;;;217186;1298;22576;-56
2023/09/26 21:12:26;;;;;;;14.60;13.10;;;24.40;69.00;;;;;;217249;1292;22591;-56
2023/09/26 21:17:29;;;;;;;16.00;13.80;;;24.30;69.20;;;;;;217317;1291;22573;-58
2023/09/26 21:22:32;;;;;;;15.00;13.50;;;24.30;69.10;;;;;;217237;1298;22548;-59
2023/09/26 21:27:35;;;;;;;22.40;14.70;;;24.30;69.50;;;;;;217006;1288;22681;-58
2023/09/26 21:32:38;;;;;;;17.80;14.30;;;24.30;69.00;;;;;;217515;1291;25418;-56
2023/09/26 21:37:42;;;;;;;15.30;13.60;;;24.30;69.00;;;;;;217253;1291;23090;-57
2023/09/26 21:42:45;;;;;;;14.60;13.10;;;24.40;68.60;;;;;;217587;1290;22569;-59
2023/09/26 21:47:48;;;;;;;15.50;13.80;;;24.40;68.50;;;;;;217065;1291;22671;-57
2023/09/26 21:52:51;;;;;;;14.80;13.30;;;24.20;69.50;;;;;;217255;1291;25433;-57
2023/09/26 21:57:54;;;;;;;14.20;12.40;;;24.20;69.30;;;;;;217248;1294;25637;-57
2023/09/26 22:02:58;;;;;;;14.30;12.80;;;24.30;68.90;;;;;;217132;1295;22553;-57
2023/09/26 22:08:05;;;;;;;14.70;12.30;;;24.30;68.80;;;;;;217344;1291;22567;-56
2023/09/26 22:13:08;;;;;;;14.70;13.20;;;24.40;69.10;;;;;;217277;1291;22570;-57
2023/09/26 22:18:11;;;;;;;15.10;13.40;;;24.40;69.20;;;;;;217298;1294;22660;-56
2023/09/26 22:23:14;;;;;;;14.60;12.60;;;24.30;69.00;;;;;;217143;1289;22559;-56
2023/09/26 22:28:17;;;;;;;12.90;11.80;;;24.30;69.40;;;;;;217282;1294;22590;-57
2023/09/26 22:33:21;;;;;;;14.60;12.90;;;24.30;69.30;;;;;;217274;1290;22652;-58
2023/09/26 22:38:23;;;;;;;14.20;12.70;;;24.30;69.40;;;;;;217164;1292;22567;-57
2023/09/26 22:43:26;;;;;;;13.00;11.80;;;24.20;69.70;;;;;;217013;1288;22583;-57
2023/09/26 22:48:31;;;;;;;13.40;12.00;;;24.10;70.50;;;;;;217215;1291;24270;-57
2023/09/26 22:53:34;;;;;;;13.30;11.90;;;24.10;70.00;;;;;;217126;1295;22563;-56
2023/09/26 22:58:36;;;;;;;13.20;12.00;;;24.10;69.80;;;;;;216973;1292;23978;-57
2023/09/26 23:03:39;;;;;;;12.90;11.60;;;24.20;69.60;;;;;;217287;1291;22545;-59
2023/09/26 23:08:42;;;;;;;12.70;11.50;;;24.30;69.40;;;;;;217301;1291;23213;-60
2023/09/26 23:13:45;;;;;;;12.90;11.70;;;24.30;69.60;;;;;;217171;1291;24947;-63
2023/09/26 23:18:49;;;;;;;12.70;11.40;;;24.30;69.70;;;;;;217055;1294;22833;-62
2023/09/26 23:23:52;;;;;;;12.50;11.30;;;24.30;69.20;;;;;;217389;1294;22945;-62
2023/09/26 23:28:55;;;;;;;13.00;11.80;;;24.40;69.00;;;;;;217158;1291;22559;-62
2023/09/26 23:33:58;;;;;;;12.30;11.10;;;24.30;68.90;;;;;;217179;1294;25499;-61
2023/09/26 23:39:01;;;;;;;13.10;11.30;;;24.30;68.80;;;;;;217051;1291;25154;-61
2023/09/26 23:44:07;;;;;;;12.50;11.20;;;24.30;68.80;;;;;;217025;1291;25651;-61
2023/09/26 23:49:10;;;;;;;12.30;11.10;;;24.30;68.80;;;;;;217203;1291;24942;-61
2023/09/26 23:54:13;;;;;;;10.70;9.70;;;24.20;68.80;;;;;;217490;1292;24311;-61
2023/09/26 23:59:16;;;;;;;12.10;10.40;;;24.20;68.90;;;;;;216759;1291;22812;-60
